createdAt,value
2019-02-04T00:04:31.919Z,10.40
2019-02-04T00:07:01.172Z,13.10
2019-02-04T00:09:49.356Z,13.97
2019-02-04T00:12:37.430Z,13.88
2019-02-04T00:15:25.475Z,14.50
2019-02-04T00:18:13.766Z,11.80
2019-02-04T00:21:02.295Z,16.93
2019-02-04T00:23:50.418Z,17.23
2019-02-04T00:26:38.461Z,16.12
2019-02-04T00:29:26.543Z,18.40
2019-02-04T00:32:14.723Z,13.07
2019-02-04T00:35:04.716Z,12.60
2019-02-04T00:37:52.785Z,16.35
2019-02-04T00:40:34.070Z,16.50
2019-02-04T00:43:15.103Z,15.20
2019-02-04T00:45:55.998Z,15.40
2019-02-04T00:48:36.832Z,18.02
2019-02-04T00:51:17.618Z,17.02
2019-02-04T00:53:58.329Z,13.13
2019-02-04T00:56:39.178Z,17.17
2019-02-04T00:59:19.792Z,22.00
2019-02-04T01:02:00.615Z,16.73
2019-02-04T01:04:41.874Z,16.70
2019-02-04T01:07:22.584Z,15.43
2019-02-04T01:10:03.267Z,17.13
2019-02-04T01:12:44.136Z,16.82
2019-02-04T01:15:24.747Z,15.17
2019-02-04T01:18:05.715Z,14.93
2019-02-04T01:20:47.171Z,20.43
2019-02-04T01:23:27.668Z,17.37
2019-02-04T01:26:08.533Z,18.87
2019-02-04T01:28:37.721Z,21.67
2019-02-04T01:31:25.848Z,39.05
2019-02-04T01:34:14.049Z,17.67
2019-02-04T01:37:02.160Z,29.05
2019-02-04T01:39:42.949Z,31.70
2019-02-04T01:42:24.195Z,34.20
2019-02-04T01:44:52.955Z,18.05
2019-02-04T01:47:40.981Z,31.60
2019-02-04T01:50:29.138Z,56.13
2019-02-04T01:53:17.337Z,29.20
2019-02-04T01:56:05.559Z,23.97
2019-02-04T01:58:53.667Z,31.37
2019-02-04T02:01:41.752Z,20.53
2019-02-04T02:04:10.745Z,20.40
2019-02-04T02:06:58.886Z,17.80
2019-02-04T02:09:47.024Z,21.10
2019-02-04T02:12:35.151Z,23.98
2019-02-04T02:15:23.259Z,20.73
2019-02-04T02:18:11.561Z,20.97
2019-02-04T02:20:59.640Z,20.50
2019-02-04T02:23:48.147Z,17.37
2019-02-04T02:26:36.257Z,19.77
2019-02-04T02:29:24.280Z,24.97
2019-02-04T02:32:12.400Z,20.33
2019-02-04T02:35:00.500Z,23.30
2019-02-04T02:37:48.673Z,22.17
2019-02-04T02:40:29.174Z,21.33
2019-02-04T02:43:11.738Z,21.83
2019-02-04T02:45:53.097Z,22.83
2019-02-04T02:48:34.514Z,26.77
2019-02-04T02:51:15.328Z,20.80
2019-02-04T02:53:56.112Z,17.10
2019-02-04T02:56:37.001Z,23.27
2019-02-04T02:59:06.290Z,21.63
2019-02-04T03:01:54.337Z,31.57
2019-02-04T03:04:23.262Z,21.50
2019-02-04T03:07:49.573Z,22.13
2019-02-04T03:10:37.638Z,20.10
2019-02-04T03:13:25.610Z,27.30
2019-02-04T03:16:13.631Z,21.27
2019-02-04T03:19:01.635Z,30.37
2019-02-04T03:21:49.664Z,25.43
2019-02-04T03:24:39.383Z,25.13
2019-02-04T03:27:27.399Z,26.87
2019-02-04T03:30:18.535Z,27.43
2019-02-04T03:33:06.747Z,24.67
2019-02-04T03:35:54.864Z,23.57
2019-02-04T03:38:42.967Z,30.23
2019-02-04T03:41:23.806Z,23.53
2019-02-04T03:43:52.602Z,27.40
2019-02-04T03:46:40.631Z,27.60
2019-02-04T03:49:28.712Z,27.27
2019-02-04T03:52:16.723Z,30.20
2019-02-04T03:55:05.071Z,24.63
2019-02-04T03:57:53.084Z,31.10
2019-02-04T04:00:41.244Z,29.97
2019-02-04T04:03:31.113Z,28.93
2019-02-04T04:06:19.188Z,29.03
2019-02-04T04:09:07.434Z,26.97
2019-02-04T04:11:55.442Z,32.00
2019-02-04T04:14:43.579Z,35.23
2019-02-04T04:17:31.594Z,24.60
2019-02-04T04:20:19.603Z,30.53
2019-02-04T04:23:07.675Z,27.67
2019-02-04T04:25:55.711Z,27.30
2019-02-04T04:28:43.730Z,26.63
2019-02-04T04:31:31.830Z,28.90
2019-02-04T04:34:19.837Z,22.87
2019-02-04T04:37:07.880Z,31.23
2019-02-04T04:39:55.869Z,24.40
2019-02-04T04:42:36.943Z,25.17
2019-02-04T04:45:17.866Z,24.80
2019-02-04T04:47:59.282Z,31.70
2019-02-04T04:50:40.647Z,27.57
2019-02-04T04:53:09.383Z,24.45
2019-02-04T04:55:57.397Z,26.07
2019-02-04T04:58:45.557Z,30.27
2019-02-04T05:01:14.361Z,38.60
2019-02-04T05:04:02.484Z,28.53
2019-02-04T05:07:11.196Z,35.13
2019-02-04T05:09:59.435Z,28.93
2019-02-04T05:12:28.200Z,37.33
2019-02-04T05:15:17.171Z,33.20
2019-02-04T05:18:05.193Z,33.93
2019-02-04T05:20:53.165Z,35.30
2019-02-04T05:23:42.864Z,29.87
2019-02-04T05:26:30.915Z,33.27
2019-02-04T05:29:20.676Z,32.53
2019-02-04T05:32:08.647Z,34.90
2019-02-04T05:34:57.556Z,41.67
2019-02-04T05:37:45.709Z,40.63
2019-02-04T05:40:33.788Z,36.70
2019-02-04T05:43:14.719Z,37.80
2019-02-04T05:45:56.044Z,33.10
2019-02-04T05:48:36.605Z,39.08
2019-02-04T05:51:17.764Z,35.80
2019-02-04T05:53:58.536Z,40.40
2019-02-04T05:56:39.614Z,35.67
2019-02-04T05:59:20.266Z,30.37
2019-02-04T06:02:01.125Z,44.00
2019-02-04T06:04:41.961Z,37.93
2019-02-04T06:07:22.893Z,43.53
2019-02-04T06:10:03.962Z,40.33
2019-02-04T06:12:44.667Z,39.97
2019-02-04T06:15:27.503Z,40.28
2019-02-04T06:18:08.405Z,42.07
2019-02-04T06:20:49.407Z,38.33
2019-02-04T06:23:30.740Z,39.42
2019-02-04T06:26:11.911Z,32.67
2019-02-04T06:28:52.576Z,35.63
2019-02-04T06:31:33.378Z,45.57
2019-02-04T06:34:14.339Z,34.78
2019-02-04T06:36:55.780Z,43.78
2019-02-04T06:39:36.330Z,66.28
2019-02-04T06:42:17.912Z,47.30
2019-02-04T06:45:01.146Z,37.37
2019-02-04T06:47:41.349Z,37.13
2019-02-04T06:50:22.881Z,54.20
2019-02-04T06:53:03.713Z,43.57
2019-02-04T06:55:45.008Z,47.05
2019-02-04T06:58:25.894Z,38.43
2019-02-04T07:07:00.108Z,39.57
2019-02-04T07:09:41.478Z,35.17
2019-02-04T07:12:22.418Z,39.23
2019-02-04T07:15:21.233Z,37.30
2019-02-04T07:17:53.280Z,75.77
2019-02-04T07:20:33.940Z,37.00
2019-02-04T07:23:16.169Z,38.25
2019-02-04T07:26:01.206Z,39.45
2019-02-04T07:28:41.620Z,64.50
2019-02-04T07:31:22.865Z,40.23
2019-02-04T07:34:04.140Z,34.90
2019-02-04T07:36:44.990Z,31.80
2019-02-04T07:39:26.395Z,30.90
2019-02-04T07:42:07.203Z,33.28
2019-02-04T07:44:47.951Z,29.67
2019-02-04T07:47:33.257Z,27.70
2019-02-04T07:50:14.242Z,32.85
2019-02-04T07:52:54.990Z,33.37
2019-02-04T07:55:35.869Z,28.50
2019-02-04T07:58:16.867Z,31.57
2019-02-04T08:01:02.066Z,32.67
2019-02-04T08:03:43.377Z,27.62
2019-02-04T08:06:25.021Z,44.90
2019-02-04T08:09:05.485Z,31.27
2019-02-04T08:11:46.140Z,40.00
2019-02-04T08:14:28.302Z,43.78
2019-02-04T08:17:12.686Z,28.55
2019-02-04T08:23:08.940Z,27.02
2019-02-04T08:26:02.571Z,22.93
2019-02-04T08:28:31.433Z,24.05
2019-02-04T08:31:19.639Z,27.27
2019-02-04T08:34:12.850Z,27.05
2019-02-04T08:37:01.080Z,35.97
2019-02-04T08:39:49.779Z,20.60
2019-02-04T08:42:37.817Z,18.67
2019-02-04T08:45:20.666Z,23.65
2019-02-04T08:48:01.892Z,22.70
2019-02-04T08:50:42.814Z,17.90
2019-02-04T08:53:23.801Z,20.80
2019-02-04T08:56:04.519Z,28.95
2019-02-04T08:58:45.493Z,17.73
2019-02-04T09:01:25.944Z,21.73
2019-02-04T09:07:05.696Z,16.27
2019-02-04T09:09:46.931Z,17.42
2019-02-04T09:12:28.052Z,16.45
2019-02-04T09:15:08.755Z,17.75
2019-02-04T09:17:49.858Z,18.50
2019-02-04T09:20:30.669Z,16.10
2019-02-04T09:23:13.684Z,49.42
2019-02-04T09:25:56.209Z,16.90
2019-02-04T09:28:37.251Z,14.60
2019-02-04T09:31:20.749Z,14.85
2019-02-04T09:34:02.228Z,13.45
2019-02-04T09:36:43.925Z,16.37
2019-02-04T09:39:13.132Z,14.25
2019-02-04T09:42:01.609Z,13.95
2019-02-04T09:44:30.553Z,42.00
2019-02-04T09:47:11.355Z,14.35
2019-02-04T09:49:53.023Z,18.27
2019-02-04T09:55:24.365Z,11.97
2019-02-04T09:58:08.077Z,14.25
2019-02-04T10:00:49.535Z,11.08
2019-02-04T10:03:32.193Z,14.95
2019-02-04T10:06:18.155Z,10.93
2019-02-04T10:08:47.074Z,12.53
2019-02-04T10:11:15.947Z,14.90
2019-02-04T10:13:45.042Z,11.75
2019-02-04T10:16:13.792Z,13.25
2019-02-04T10:18:42.661Z,12.20
2019-02-04T10:21:11.373Z,12.60
2019-02-04T10:23:40.537Z,11.00
2019-02-04T10:26:09.427Z,12.68
2019-02-04T10:28:38.803Z,12.50
2019-02-04T10:31:07.692Z,11.97
2019-02-04T10:33:36.891Z,11.85
2019-02-04T10:36:05.647Z,12.07
2019-02-04T10:38:34.568Z,13.75
2019-02-04T10:41:03.354Z,12.10
2019-02-04T10:43:32.602Z,14.65
2019-02-04T10:46:01.423Z,10.82
2019-02-04T10:48:30.649Z,8.95
2019-02-04T10:50:59.534Z,14.65
2019-02-04T10:53:28.308Z,14.38
2019-02-04T10:55:57.074Z,11.53
2019-02-04T10:58:26.068Z,12.43
2019-02-04T11:00:54.907Z,10.35
2019-02-04T11:03:23.675Z,13.78
2019-02-04T11:05:52.468Z,9.88
2019-02-04T11:08:21.292Z,14.55
2019-02-04T11:10:50.158Z,14.90
2019-02-04T11:13:18.939Z,10.40
2019-02-04T11:15:48.281Z,10.28
2019-02-04T11:18:17.627Z,11.15
2019-02-04T11:20:57.152Z,10.60
2019-02-04T11:23:17.159Z,11.48
2019-02-04T11:25:46.004Z,12.37
2019-02-04T11:28:15.011Z,12.07
2019-02-04T11:30:49.380Z,13.05
2019-02-04T11:33:18.154Z,12.13
2019-02-04T11:35:47.030Z,13.85
2019-02-04T11:38:15.810Z,10.48
2019-02-04T11:40:45.880Z,13.70
2019-02-04T11:43:15.599Z,9.43
2019-02-04T11:45:44.447Z,9.90
2019-02-04T11:48:13.923Z,12.33
2019-02-04T11:50:42.748Z,13.20
2019-02-04T11:53:11.884Z,11.25
2019-02-04T11:55:40.611Z,13.75
2019-02-04T11:58:09.350Z,15.20
2019-02-04T12:00:38.217Z,14.10
2019-02-04T12:03:07.667Z,11.03
2019-02-04T12:05:36.843Z,12.30
2019-02-04T12:08:05.662Z,10.75
2019-02-04T12:10:37.497Z,13.45
2019-02-04T12:13:06.206Z,12.73
2019-02-04T12:15:34.927Z,11.85
2019-02-04T12:18:03.649Z,12.90
2019-02-04T12:20:32.406Z,14.23
2019-02-04T12:23:01.190Z,12.18
2019-02-04T12:25:29.921Z,11.55
2019-02-04T12:27:58.982Z,10.82
2019-02-04T12:30:31.038Z,19.42
2019-02-04T12:33:00.305Z,14.23
2019-02-04T12:35:29.135Z,19.42
2019-02-04T12:37:57.986Z,13.15
2019-02-04T12:40:26.825Z,19.80
2019-02-04T12:42:55.561Z,13.22
2019-02-04T12:45:26.663Z,16.55
2019-02-04T12:47:55.454Z,10.63
2019-02-04T12:50:24.278Z,11.30
2019-02-04T12:52:53.116Z,12.93
2019-02-04T12:55:23.433Z,10.03
2019-02-04T12:57:52.235Z,15.90
2019-02-04T13:00:22.462Z,11.53
2019-02-04T13:02:51.224Z,9.78
2019-02-04T13:05:25.706Z,9.68
2019-02-04T13:07:54.495Z,10.68
2019-02-04T13:10:23.700Z,13.72
2019-02-04T13:12:52.446Z,17.30
2019-02-04T13:15:21.404Z,9.13
2019-02-04T13:17:50.409Z,16.20
2019-02-04T13:20:19.848Z,10.05
2019-02-04T13:22:48.989Z,9.38
2019-02-04T13:25:20.549Z,14.38
2019-02-04T13:27:49.304Z,9.08
2019-02-04T13:30:19.648Z,17.40
2019-02-04T13:32:48.507Z,7.65
2019-02-04T13:35:17.437Z,11.57
2019-02-04T13:37:46.241Z,9.78
2019-02-04T13:40:18.090Z,11.93
2019-02-04T13:42:46.863Z,12.90
2019-02-04T13:45:16.892Z,8.18
2019-02-04T13:47:45.739Z,15.23
2019-02-04T13:50:15.014Z,13.55
2019-02-04T13:52:44.251Z,12.37
2019-02-04T13:55:16.768Z,7.55
2019-02-04T13:57:45.593Z,11.08
2019-02-04T14:00:14.373Z,16.05
2019-02-04T14:02:43.218Z,15.30
2019-02-04T14:05:12.237Z,7.65
2019-02-04T14:07:41.527Z,14.28
2019-02-04T14:10:24.418Z,8.65
2019-02-04T14:12:53.207Z,11.45
2019-02-04T14:15:21.910Z,9.23
2019-02-04T14:17:50.781Z,14.85
2019-02-04T14:20:19.922Z,14.15
2019-02-04T14:22:48.713Z,9.63
2019-02-04T14:25:17.452Z,10.15
2019-02-04T14:27:46.278Z,8.13
2019-02-04T14:30:20.681Z,12.53
2019-02-04T14:32:49.787Z,11.25
2019-02-04T14:35:18.598Z,10.45
2019-02-04T14:37:47.442Z,9.55
2019-02-04T14:40:18.876Z,20.85
2019-02-04T14:42:49.073Z,14.23
2019-02-04T14:45:26.676Z,15.55
2019-02-04T14:48:41.886Z,13.10
2019-02-04T14:51:33.124Z,9.38
2019-02-04T14:54:57.280Z,15.00
2019-02-04T14:58:06.970Z,10.65
2019-02-04T15:00:55.195Z,8.45
2019-02-04T15:03:43.308Z,8.25
2019-02-04T15:06:27.124Z,8.63
2019-02-04T15:09:43.718Z,13.08
2019-02-04T15:12:51.833Z,9.78
2019-02-04T15:15:53.725Z,9.75
2019-02-04T15:18:58.106Z,8.90
2019-02-04T15:22:07.949Z,15.00
2019-02-04T15:24:57.533Z,9.55
2019-02-04T15:28:08.058Z,15.53
2019-02-04T15:31:12.165Z,6.70
2019-02-04T15:34:19.035Z,11.68
2019-02-04T15:37:08.920Z,7.33
2019-02-04T15:40:02.652Z,9.88
2019-02-04T15:43:12.544Z,15.10
2019-02-04T15:45:57.843Z,10.72
2019-02-04T15:48:42.406Z,8.28
2019-02-04T15:51:30.339Z,9.43
2019-02-04T15:54:01.775Z,9.55
2019-02-04T15:56:30.534Z,10.88
2019-02-04T15:58:59.271Z,11.35
2019-02-04T16:01:27.986Z,10.48
2019-02-04T16:03:56.876Z,11.25
2019-02-04T16:06:25.709Z,9.40
2019-02-04T16:08:54.493Z,8.53
2019-02-04T16:11:23.244Z,10.20
2019-02-04T16:24:14.214Z,11.35
2019-02-04T16:30:28.929Z,15.30
2019-02-04T16:33:44.364Z,10.82
2019-02-04T16:36:20.587Z,7.75
2019-02-04T16:39:09.407Z,8.43
2019-02-04T16:41:57.398Z,8.85
2019-02-04T16:45:09.243Z,11.40
2019-02-04T16:50:39.348Z,8.18
2019-02-04T16:53:21.829Z,9.23
2019-02-04T16:56:04.464Z,6.97
2019-02-04T16:58:45.784Z,6.45
2019-02-04T17:01:30.353Z,6.70
2019-02-04T17:04:14.774Z,8.23
2019-02-04T17:12:30.776Z,8.28
2019-02-04T17:15:19.977Z,10.35
2019-02-04T17:18:05.085Z,6.97
2019-02-04T17:20:45.975Z,11.55
2019-02-04T17:23:30.149Z,8.25
2019-02-04T17:26:12.407Z,8.03
2019-02-04T17:29:02.453Z,10.43
2019-02-04T17:31:48.402Z,9.80
2019-02-04T17:34:32.172Z,7.37
2019-02-04T17:37:16.488Z,7.45
2019-02-04T17:40:00.330Z,6.05
2019-02-04T17:42:41.028Z,8.83
2019-02-04T17:45:21.766Z,7.45
2019-02-04T17:50:45.292Z,9.35
2019-02-04T17:53:34.323Z,9.03
2019-02-04T17:56:11.643Z,7.85
2019-02-04T17:58:52.821Z,8.83
2019-02-04T18:01:34.114Z,3.77
2019-02-04T18:06:58.882Z,5.58
2019-02-04T18:12:27.143Z,8.43
2019-02-04T18:15:07.517Z,5.95
2019-02-04T18:17:56.039Z,4.62
2019-02-04T18:20:37.309Z,5.30
2019-02-04T18:23:19.141Z,5.92
2019-02-04T18:26:00.558Z,4.97
2019-02-04T18:28:41.195Z,6.15
2019-02-04T18:31:24.883Z,6.25
2019-02-04T18:34:06.479Z,6.78
2019-02-04T18:36:47.809Z,5.72
2019-02-04T18:39:28.533Z,4.97
2019-02-04T18:42:10.769Z,4.67
2019-02-04T18:44:51.796Z,5.55
2019-02-04T18:47:32.791Z,5.87
2019-02-04T18:50:14.044Z,5.47
2019-02-04T18:52:55.479Z,4.85
2019-02-04T18:55:39.793Z,6.33
2019-02-04T18:58:18.868Z,6.00
2019-02-04T19:01:03.400Z,5.33
2019-02-04T19:03:44.920Z,5.45
2019-02-04T19:06:26.015Z,7.45
2019-02-04T19:09:07.439Z,5.47
2019-02-04T19:11:59.613Z,5.53
2019-02-04T19:14:41.462Z,4.08
2019-02-04T19:17:26.919Z,4.65
2019-02-04T19:20:11.887Z,4.37
2019-02-04T19:22:52.426Z,5.45
2019-02-04T19:25:39.222Z,5.53
2019-02-04T19:28:20.525Z,7.67
2019-02-04T19:31:01.505Z,5.47
2019-02-04T19:39:12.735Z,8.28
2019-02-04T19:41:58.774Z,6.42
2019-02-04T19:44:41.694Z,5.53
2019-02-04T19:50:10.439Z,4.62
2019-02-04T19:52:54.689Z,9.10
2019-02-04T19:55:25.777Z,5.15
2019-02-04T19:58:13.799Z,5.70
2019-02-04T20:01:01.912Z,6.83
2019-02-04T20:03:50.076Z,5.03
2019-02-04T20:06:38.346Z,4.70
2019-02-04T20:09:26.837Z,7.72
2019-02-04T20:12:14.956Z,8.88
2019-02-04T20:15:03.023Z,6.10
2019-02-04T20:17:51.706Z,7.53
2019-02-04T20:20:42.588Z,4.35
2019-02-04T20:23:30.500Z,7.90
2019-02-04T20:26:32.861Z,6.67
2019-02-04T20:29:08.957Z,5.62
2019-02-04T20:31:57.182Z,5.60
2019-02-04T20:34:45.435Z,8.60
2019-02-04T20:37:35.223Z,5.33
2019-02-04T20:40:23.544Z,8.63
2019-02-04T20:43:11.722Z,5.83
2019-02-04T20:45:59.949Z,7.78
2019-02-04T20:48:48.057Z,5.22
2019-02-04T20:51:29.536Z,5.15
2019-02-04T20:54:19.467Z,6.25
2019-02-04T20:56:53.142Z,6.45
2019-02-04T20:59:34.379Z,4.85
2019-02-04T21:02:15.486Z,6.72
2019-02-04T21:04:56.190Z,6.30
2019-02-04T21:07:36.935Z,6.75
2019-02-04T21:10:17.848Z,5.92
2019-02-04T21:12:58.710Z,6.62
2019-02-04T21:15:39.482Z,7.03
2019-02-04T21:18:20.651Z,6.05
2019-02-04T21:20:51.913Z,7.97
2019-02-04T21:23:40.048Z,8.58
2019-02-04T21:26:29.282Z,6.00
2019-02-04T21:29:18.992Z,6.67
2019-02-04T21:32:07.104Z,5.83
2019-02-04T21:34:55.535Z,8.73
2019-02-04T21:37:43.665Z,4.72
2019-02-04T21:40:52.546Z,9.35
2019-02-04T21:43:43.021Z,5.70
2019-02-04T21:46:33.120Z,10.15
2019-02-04T21:49:14.519Z,5.95
2019-02-04T21:51:59.289Z,10.65
2019-02-04T21:54:43.465Z,4.70
2019-02-04T21:57:24.373Z,5.60
2019-02-04T22:00:05.530Z,5.03
2019-02-04T22:02:47.200Z,6.53
2019-02-04T22:05:28.602Z,5.80
2019-02-04T22:08:11.103Z,8.33
2019-02-04T22:10:52.424Z,9.80
2019-02-04T22:13:34.043Z,7.60
2019-02-04T22:16:15.257Z,5.70
2019-02-04T22:21:42.429Z,5.78
2019-02-04T22:24:24.058Z,6.50
2019-02-04T22:27:05.063Z,7.08
2019-02-04T22:29:46.009Z,6.92
2019-02-04T22:32:26.906Z,6.03
2019-02-04T22:35:08.083Z,8.30
2019-02-04T22:37:48.586Z,6.92
2019-02-04T22:40:30.063Z,9.53
2019-02-04T22:43:11.280Z,8.03
2019-02-04T22:45:51.686Z,6.20
2019-02-04T22:48:33.476Z,7.92
2019-02-04T22:51:13.920Z,10.55
2019-02-04T22:53:54.814Z,6.28
2019-02-04T22:56:35.856Z,6.85
2019-02-04T22:59:16.641Z,6.40
2019-02-04T23:01:57.878Z,5.78
2019-02-04T23:04:39.484Z,10.43
2019-02-04T23:07:19.963Z,7.75
2019-02-04T23:10:00.627Z,8.38
2019-02-04T23:12:42.196Z,7.70
2019-02-04T23:15:23.656Z,5.95
2019-02-04T23:18:04.898Z,8.50
2019-02-04T23:20:46.121Z,11.68
2019-02-04T23:23:27.389Z,7.60
2019-02-04T23:26:11.008Z,8.15
2019-02-04T23:28:52.247Z,8.15
2019-02-04T23:31:35.627Z,8.55
2019-02-04T23:34:16.756Z,11.45
2019-02-04T23:36:57.342Z,8.00
2019-02-04T23:39:38.320Z,10.68
2019-02-04T23:42:19.330Z,7.90
2019-02-04T23:45:00.198Z,7.50
2019-02-04T23:47:41.282Z,7.28
2019-02-04T23:50:21.939Z,7.40
2019-02-04T23:53:02.691Z,8.35
2019-02-04T23:55:54.131Z,6.45
2019-02-04T23:58:26.249Z,6.05
